Main page
METAR-TAF:

METAR-TAF

Airports :

Uytash Airport

Makhachkala, Russia

latitude: 42-49-01N, longitude: 047-39-08E, elevation: 4 m

Current weather observation

The report was made 32 minutes ago, at 15:30 UTC
Wind 16 kt from the South/Southeast
Temperature 26°C
Humidity 61%
Pressure 1009 hPa
Visibility 10 km or more

METAR: URML 221530Z 16008MPS 9999 NSC 26/18 Q1009 R14/01//70 NOSIG RMK QFE756/1009

Time: 19:02 (16:02 UTC)

Forecast

The report was made 2 hours and 2 minutes ago, at 14:00 UTC
Forecast valid from 22 at 15 UTC to 22 at 24 UTC
Wind 16 kt from the Southeast with gusts up to 25 kt
Visibility 10 km or more
Scattered clouds at a height of 4000 ft
Temporary
from 22 at 15 UTC to 22 at 18 UTC
Wind 21 kt from the South/Southeast with gusts up to 35 kt
Scattered clouds at a height of 4000 ft, Cumulonimbus.
Becoming
from 22 at 18 UTC to 22 at 21 UTC
Wind 12 kt from the South with gusts up to 21 kt

TAF: URML 221400Z 2215/2224 14008G13MPS 9999 SCT040 TEMPO 2215/2218 15011G18MPS SCT040CB BECMG 2218/2221 17006G11MPS

Weather observations and forecasts of more than 4000 airports (METAR and TAF reports).

The available stations are represented by yellow and red dots on the map.

Hover mouse over dot to see the name of the station.

Then click to see weather observations and forecasts.

To change the map : click on the green buttons with a black cross to zoom in, on the green button with a dash to zoom out, or on the green arrows for adjacent maps.


METAR-TAF: